Time;durP1;ratioP1;P1;durP2;ratioP2;P2;SDS_P1;SDS_P2;PMS_P1;PMS_P2;Temp;Humidity;BMP_temperature;BMP_pressure;BME280_temperature;BME280_humidity;BME280_pressure;Samples;Min_cycle;Max_cycle;Signal;HPM_P1;HPM_P2
2023/04/27 05:54:48;;;;;;;13.90;7.50;;;;;;;;;;5135054;27;20359;-80
2023/04/27 05:57:15;;;;;;;13.10;6.78;;;;;;;;;;5114447;27;20419;-81
2023/04/27 05:59:41;;;;;;;12.33;7.13;;;;;;;;;;5106928;28;20420;-81
2023/04/27 06:02:08;;;;;;;14.65;7.70;;;;;;;;;;5110938;28;20830;-81
2023/04/27 06:04:35;;;;;;;14.25;7.25;;;;;;;;;;5129075;28;20419;-83
2023/04/27 06:07:03;;;;;;;13.43;7.30;;;;;;;;;;5110334;28;20449;-83
2023/04/27 06:09:30;;;;;;;13.33;7.43;;;;;;;;;;5127363;27;20446;-83
2023/04/27 06:14:45;;;;;;;12.63;7.10;;;;;;;;;;5123114;27;1974846;-79
2023/04/27 06:17:11;;;;;;;11.00;6.95;;;;;;;;;;5124767;27;20889;-80
2023/04/27 06:19:37;;;;;;;13.35;7.10;;;;;;;;;;5149954;27;20519;-80
2023/04/27 06:22:03;;;;;;;11.35;6.70;;;;;;;;;;5113163;27;20757;-79
2023/04/27 06:24:29;;;;;;;11.55;6.60;;;;;;;;;;5153859;27;20404;-79
2023/04/27 06:26:55;;;;;;;10.70;7.00;;;;;;;;;;5149412;27;20854;-81
2023/04/27 06:29:22;;;;;;;15.82;6.75;;;;;;;;;;5133606;27;20409;-80
2023/04/27 06:31:48;;;;;;;12.33;7.00;;;;;;;;;;5122691;27;20766;-81
2023/04/27 06:34:14;;;;;;;12.15;6.57;;;;;;;;;;5137206;27;20421;-80
2023/04/27 06:36:40;;;;;;;9.57;6.28;;;;;;;;;;5132064;27;20968;-80
2023/04/27 06:39:06;;;;;;;13.20;6.88;;;;;;;;;;5141277;27;20420;-79
2023/04/27 06:41:32;;;;;;;12.27;6.28;;;;;;;;;;5137707;27;20437;-79
2023/04/27 06:43:58;;;;;;;12.63;6.93;;;;;;;;;;5148561;27;20427;-79
2023/04/27 06:46:25;;;;;;;10.75;6.13;;;;;;;;;;5123961;27;20768;-78
2023/04/27 06:48:51;;;;;;;8.73;5.25;;;;;;;;;;5121634;27;20941;-77
2023/04/27 06:51:17;;;;;;;9.95;5.43;;;;;;;;;;5143752;27;20419;-79
2023/04/27 06:53:43;;;;;;;9.57;5.68;;;;;;;;;;5124463;27;20414;-80
2023/04/27 06:56:10;;;;;;;9.35;5.07;;;;;;;;;;5147247;27;20791;-79
2023/04/27 06:58:36;;;;;;;9.43;5.10;;;;;;;;;;5133633;27;20444;-80
2023/04/27 07:01:03;;;;;;;12.70;4.97;;;;;;;;;;5125859;27;20419;-79
2023/04/27 07:03:30;;;;;;;10.90;4.65;;;;;;;;;;5148231;27;20754;-79
2023/04/27 07:05:58;;;;;;;7.63;4.57;;;;;;;;;;5126559;27;20444;-80
2023/04/27 07:08:24;;;;;;;8.50;4.47;;;;;;;;;;5112534;27;20491;-79
2023/04/27 07:10:50;;;;;;;9.10;4.57;;;;;;;;;;5142106;27;20503;-80
2023/04/27 07:13:16;;;;;;;10.32;4.90;;;;;;;;;;5101081;28;20417;-81
2023/04/27 07:15:42;;;;;;;10.05;4.30;;;;;;;;;;5112766;28;20480;-79
2023/04/27 07:18:08;;;;;;;10.15;3.90;;;;;;;;;;5124007;28;20783;-80
2023/04/27 07:20:37;;;;;;;7.68;3.50;;;;;;;;;;5124393;28;20416;-80
2023/04/27 07:23:03;;;;;;;7.82;3.55;;;;;;;;;;5118905;28;20428;-80
2023/04/27 07:25:29;;;;;;;6.82;3.92;;;;;;;;;;5093079;28;20422;-80
2023/04/27 07:27:55;;;;;;;8.13;3.70;;;;;;;;;;5089884;28;20982;-80
2023/04/27 07:30:22;;;;;;;6.57;3.47;;;;;;;;;;5112017;28;20420;-80
2023/04/27 07:32:53;;;;;;;6.55;3.15;;;;;;;;;;5111386;28;20412;-81
2023/04/27 07:35:19;;;;;;;6.43;3.10;;;;;;;;;;5080599;28;20408;-81
2023/04/27 07:37:45;;;;;;;5.88;2.92;;;;;;;;;;5107262;28;20491;-81
2023/04/27 07:40:17;;;;;;;6.10;3.30;;;;;;;;;;5089760;28;20425;-79
2023/04/27 07:42:47;;;;;;;5.20;2.72;;;;;;;;;;5107312;28;20451;-82
2023/04/27 07:45:14;;;;;;;5.82;2.67;;;;;;;;;;5092629;28;20770;-82
2023/04/27 07:47:41;;;;;;;4.78;2.42;;;;;;;;;;5109250;28;20419;-81
2023/04/27 07:50:07;;;;;;;5.97;2.67;;;;;;;;;;5094542;28;20423;-82
2023/04/27 07:52:33;;;;;;;6.78;2.65;;;;;;;;;;5111349;28;20412;-80
2023/04/27 07:55:00;;;;;;;5.20;2.20;;;;;;;;;;5113344;28;20431;-78
2023/04/27 07:57:26;;;;;;;6.05;2.30;;;;;;;;;;5110018;28;20416;-78
2023/04/27 07:59:52;;;;;;;5.78;2.17;;;;;;;;;;5112476;28;20408;-80
2023/04/27 08:02:18;;;;;;;3.97;2.00;;;;;;;;;;5095470;28;20960;-80
2023/04/27 08:04:45;;;;;;;4.70;2.10;;;;;;;;;;5093140;28;20450;-82
2023/04/27 08:07:11;;;;;;;5.00;2.47;;;;;;;;;;5108718;28;20959;-80
2023/04/27 08:09:37;;;;;;;4.65;2.00;;;;;;;;;;5105137;28;20816;-80
2023/04/27 08:12:03;;;;;;;4.50;2.22;;;;;;;;;;5090177;28;20459;-81
2023/04/27 08:14:29;;;;;;;4.03;1.83;;;;;;;;;;5094393;28;20424;-81
2023/04/27 08:16:55;;;;;;;5.53;2.10;;;;;;;;;;5087810;28;21093;-80
2023/04/27 08:19:21;;;;;;;3.67;1.95;;;;;;;;;;5097244;28;20491;-80
2023/04/27 08:21:47;;;;;;;5.22;2.05;;;;;;;;;;5111511;28;20416;-79
2023/04/27 08:24:13;;;;;;;5.68;2.38;;;;;;;;;;5103923;28;20916;-79
2023/04/27 08:26:40;;;;;;;5.97;2.22;;;;;;;;;;5102282;28;20424;-79
2023/04/27 08:29:07;;;;;;;5.40;2.38;;;;;;;;;;5105998;28;20416;-79
2023/04/27 08:31:33;;;;;;;5.82;2.03;;;;;;;;;;5091127;28;20450;-79
2023/04/27 08:33:59;;;;;;;3.78;2.03;;;;;;;;;;5092423;28;20943;-78
2023/04/27 08:36:26;;;;;;;4.80;2.22;;;;;;;;;;5110516;28;20453;-79
2023/04/27 08:38:53;;;;;;;4.60;2.05;;;;;;;;;;5093478;28;20417;-79
2023/04/27 08:41:20;;;;;;;4.53;1.88;;;;;;;;;;5094370;28;20408;-80
2023/04/27 08:43:48;;;;;;;4.83;2.20;;;;;;;;;;5109873;28;20456;-80
2023/04/27 08:46:18;;;;;;;6.55;2.50;;;;;;;;;;5104431;28;22268;-81
2023/04/27 08:48:44;;;;;;;4.82;2.45;;;;;;;;;;5110517;28;20737;-80
2023/04/27 08:51:10;;;;;;;4.60;2.40;;;;;;;;;;5084243;28;20414;-80
2023/04/27 08:53:36;;;;;;;4.15;2.30;;;;;;;;;;5108549;28;20431;-80
2023/04/27 08:56:04;;;;;;;6.17;2.43;;;;;;;;;;5091846;28;20439;-80
2023/04/27 08:58:36;;;;;;;4.23;2.53;;;;;;;;;;5112493;28;20424;-79
2023/04/27 09:01:09;;;;;;;5.13;2.35;;;;;;;;;;5108021;28;20411;-80
2023/04/27 09:03:36;;;;;;;4.13;2.40;;;12.00;99.90;;;;;;5103450;28;20564;-81
2023/04/27 09:06:05;;;;;;;6.88;2.67;;;;;;;;;;5094390;28;20482;-79
2023/04/27 09:08:47;;;;;;;4.97;2.50;;;11.60;99.90;;;;;;5107560;28;20937;-81
2023/04/27 09:11:14;;;;;;;6.50;2.58;;;;;;;;;;5073168;28;20449;-80
2023/04/27 09:13:43;;;;;;;5.13;2.38;;;12.10;99.90;;;;;;5068331;28;20916;-79
2023/04/27 09:16:10;;;;;;;5.00;2.50;;;;;;;;;;5077842;28;20405;-79
2023/04/27 09:18:40;;;;;;;5.72;2.60;;;;;;;;;;5091649;27;20422;-81
2023/04/27 09:21:06;;;;;;;5.70;2.60;;;;;;;;;;5115240;27;20394;-81
2023/04/27 09:23:33;;;;;;;4.28;2.35;;;;;;;;;;5113371;27;20982;-79
2023/04/27 09:26:01;;;;;;;4.43;2.78;;;12.40;99.90;;;;;;5113884;27;20433;-80
2023/04/27 09:28:28;;;;;;;6.65;2.40;;;12.50;99.90;;;;;;5085346;27;20882;-80
2023/04/27 09:30:58;;;;;;;4.28;2.40;;;;;;;;;;5082658;27;20420;-79
2023/04/27 09:33:25;;;;;;;5.28;2.70;;;;;;;;;;5111344;27;20414;-80
2023/04/27 09:35:52;;;;;;;6.13;2.60;;;;;;;;;;5088659;27;20463;-79
2023/04/27 09:38:21;;;;;;;5.27;2.90;;;;;;;;;;5107083;27;20774;-79
2023/04/27 09:40:48;;;;;;;5.43;2.95;;;;;;;;;;5098512;27;20395;-80
2023/04/27 09:43:14;;;;;;;7.72;3.20;;;;;;;;;;5097243;27;20418;-80
2023/04/27 09:45:40;;;;;;;5.03;2.80;;;;;;;;;;5076996;28;20506;-78
2023/04/27 09:48:07;;;;;;;7.40;2.95;;;;;;;;;;5101079;27;20419;-80
2023/04/27 09:50:38;;;;;;;7.22;3.40;;;;;;;;;;5112089;27;20479;-80
2023/04/27 09:53:10;;;;;;;6.17;3.93;;;13.30;99.90;;;;;;5096388;27;20410;-80
2023/04/27 09:55:45;;;;;;;7.10;3.47;;;;;;;;;;5113403;27;20402;-80
2023/04/27 09:58:25;;;;;;;7.15;3.67;;;;;;;;;;5096418;27;20501;-79
2023/04/27 10:01:08;;;;;;;9.13;4.15;;;13.40;99.90;;;;;;5094513;27;20799;-80
2023/04/27 10:04:03;;;;;;;9.00;3.67;;;13.50;99.90;;;;;;5105144;27;20490;-80
2023/04/27 10:06:45;;;;;;;7.63;3.90;;;;;;;;;;5113143;27;20446;-80
2023/04/27 10:09:11;;;;;;;6.38;3.60;;;;;;;;;;5107527;28;20416;-81
2023/04/27 10:11:39;;;;;;;6.60;3.45;;;;;;;;;;5109585;28;20833;-79
2023/04/27 10:14:07;;;;;;;6.32;3.78;;;;;;;;;;5095287;28;20452;-79
2023/04/27 10:16:46;;;;;;;5.10;3.50;;;14.00;99.90;;;;;;5095956;28;20489;-80
2023/04/27 10:19:12;;;;;;;7.45;3.92;;;;;;;;;;5110917;28;20418;-79
2023/04/27 10:21:51;;;;;;;6.78;3.70;;;;;;;;;;5110098;28;20438;-79
2023/04/27 10:24:17;;;;;;;10.55;3.92;;;;;;;;;;5104320;28;20759;-78
2023/04/27 10:26:47;;;;;;;6.78;3.88;;;14.10;99.90;;;;;;5086926;28;20412;-79
2023/04/27 10:29:15;;;;;;;6.50;4.10;;;;;;;;;;5101845;28;20433;-78
2023/04/27 10:31:46;;;;;;;6.68;3.67;;;13.70;99.90;;;;;;5091205;28;20414;-78
2023/04/27 10:34:16;;;;;;;6.78;4.10;;;;;;;;;;5091715;28;20476;-78
2023/04/27 10:36:42;;;;;;;6.57;4.05;;;;;;;;;;5087424;28;20826;-78
2023/04/27 10:39:18;;;;;;;6.68;3.97;;;;;;;;;;5095130;28;20414;-79
2023/04/27 10:41:57;;;;;;;8.32;4.10;;;13.40;99.90;;;;;;5078420;28;20540;-79
2023/04/27 10:44:28;;;;;;;6.78;3.72;;;;;;;;;;5094198;28;20423;-78
2023/04/27 10:46:55;;;;;;;7.95;4.00;;;;;;;;;;5088344;28;20415;-78
2023/04/27 10:49:21;;;;;;;9.73;4.40;;;;;;;;;;5102041;28;20420;-78
2023/04/27 10:51:49;;;;;;;8.10;4.95;;;;;;;;;;5109985;28;20402;-79
2023/04/27 10:54:15;;;;;;;7.43;4.75;;;;;;;;;;5111171;28;20421;-78
2023/04/27 10:56:42;;;;;;;7.90;4.87;;;;;;;;;;5091604;28;20452;-79
2023/04/27 10:59:11;;;;;;;9.88;5.20;;;;;;;;;;5095854;28;20438;-77
2023/04/27 11:01:37;;;;;;;7.53;4.80;;;;;;;;;;5114373;27;20449;-78
2023/04/27 11:04:04;;;;;;;8.93;4.90;;;;;;;;;;5097553;27;20412;-79
2023/04/27 11:06:35;;;;;;;9.05;4.85;;;;;;;;;;5111685;27;20421;-78
2023/04/27 11:09:01;;;;;;;7.25;5.00;;;;;;;;;;5113410;27;20526;-78
2023/04/27 11:11:27;;;;;;;9.02;5.00;;;;;;;;;;5097306;27;20414;-77
2023/04/27 11:13:57;;;;;;;7.90;4.70;;;;;;;;;;5110781;27;20751;-78
2023/04/27 11:16:23;;;;;;;8.75;4.82;;;;;;;;;;5100188;27;20410;-78
2023/04/27 11:18:49;;;;;;;8.40;5.20;;;;;;;;;;5091200;27;20410;-77
2023/04/27 11:21:16;;;;;;;8.55;4.72;;;;;;;;;;5115241;27;20497;-78
2023/04/27 11:23:42;;;;;;;8.73;5.15;;;;;;;;;;5086649;27;20415;-78
2023/04/27 11:26:09;;;;;;;7.53;4.70;;;;;;;;;;5113521;27;20894;-78
2023/04/27 11:28:35;;;;;;;9.63;4.80;;;;;;;;;;5091289;27;20418;-77
2023/04/27 11:31:03;;;;;;;10.25;5.15;;;;;;;;;;5115598;27;20806;-77
2023/04/27 11:33:30;;;;;;;9.45;4.95;;;;;;;;;;5093149;27;20433;-78
2023/04/27 11:35:57;;;;;;;10.40;5.35;;;;;;;;;;5104671;27;20418;-78
2023/04/27 11:38:23;;;;;;;10.15;5.25;;;;;;;;;;5086828;27;20440;-78
2023/04/27 11:41:18;;;;;;;10.45;5.40;;;;;;;;;;5107313;27;20542;-78
2023/04/27 11:43:48;;;;;;;8.77;5.10;;;;;;;;;;5075040;27;20765;-79
2023/04/27 11:46:14;;;;;;;9.02;5.28;;;;;;;;;;5114459;27;20974;-79
2023/04/27 11:48:41;;;;;;;9.93;5.50;;;;;;;;;;5096219;27;21005;-79
2023/04/27 11:51:10;;;;;;;8.30;5.43;;;14.00;99.90;;;;;;5086684;27;20503;-79
2023/04/27 11:53:38;;;;;;;9.03;5.50;;;;;;;;;;5115154;27;20499;-78
2023/04/27 11:56:06;;;;;;;9.77;5.88;;;;;;;;;;5093761;27;20422;-78
2023/04/27 11:58:39;;;;;;;9.90;5.72;;;;;;;;;;5113566;27;20836;-77
2023/04/27 12:01:06;;;;;;;10.37;5.63;;;;;;;;;;5092425;27;20546;-79
2023/04/27 12:03:32;;;;;;;11.00;5.40;;;;;;;;;;5110209;27;20425;-77
2023/04/27 12:05:58;;;;;;;10.38;5.43;;;;;;;;;;5089552;27;20414;-76
2023/04/27 12:08:25;;;;;;;12.65;6.10;;;;;;;;;;5093043;27;20422;-77
2023/04/27 12:10:51;;;;;;;9.20;5.30;;;;;;;;;;5097489;27;20410;-77
2023/04/27 12:13:17;;;;;;;8.38;5.50;;;;;;;;;;5093024;27;21196;-77
2023/04/27 12:15:43;;;;;;;9.27;5.60;;;;;;;;;;5110851;27;20563;-78
2023/04/27 12:18:09;;;;;;;9.25;5.88;;;;;;;;;;5096642;27;20503;-77
2023/04/27 12:20:36;;;;;;;10.25;5.55;;;;;;;;;;5109068;27;20501;-77
2023/04/27 12:23:02;;;;;;;9.98;5.63;;;;;;;;;;5105487;27;20447;-77
2023/04/27 12:25:29;;;;;;;9.63;6.30;;;;;;;;;;5111142;27;20422;-77
2023/04/27 12:27:55;;;;;;;9.45;5.43;;;;;;;;;;5109577;27;20422;-77
2023/04/27 12:30:22;;;;;;;12.18;5.70;;;;;;;;;;5105917;27;20486;-77
2023/04/27 12:32:48;;;;;;;11.02;6.50;;;;;;;;;;5111893;27;20740;-78
2023/04/27 12:35:15;;;;;;;11.63;6.53;;;;;;;;;;5077068;28;20505;-78
2023/04/27 12:37:41;;;;;;;12.05;6.32;;;;;;;;;;5108170;27;20769;-78
2023/04/27 12:40:07;;;;;;;9.35;6.05;;;;;;;;;;5107865;27;20415;-78
2023/04/27 12:42:34;;;;;;;12.75;6.45;;;;;;;;;;5111908;27;20413;-78
2023/04/27 12:45:00;;;;;;;10.05;5.97;;;;;;;;;;5090861;28;20938;-77
2023/04/27 12:47:26;;;;;;;10.43;6.10;;;;;;;;;;5113954;27;20498;-77
2023/04/27 12:49:53;;;;;;;10.37;6.10;;;;;;;;;;5096622;27;20773;-77
2023/04/27 12:52:19;;;;;;;10.95;6.43;;;;;;;;;;5080967;28;20898;-77
2023/04/27 12:54:45;;;;;;;9.63;6.13;;;;;;;;;;5083311;28;20485;-77
2023/04/27 12:57:11;;;;;;;9.05;6.28;;;;;;;;;;5090548;27;20411;-77
2023/04/27 12:59:38;;;;;;;9.98;6.20;;;;;;;;;;5091168;27;20407;-77
2023/04/27 13:02:07;;;;;;;12.77;6.43;;;;;;;;;;5089509;27;20881;-77
2023/04/27 13:04:33;;;;;;;9.13;5.63;;;;;;;;;;5106041;27;20426;-77
2023/04/27 13:06:59;;;;;;;9.73;5.30;;;;;;;;;;5106164;27;20538;-77
2023/04/27 13:09:26;;;;;;;7.22;5.00;;;;;;;;;;5105196;27;20425;-77
2023/04/27 13:11:53;;;;;;;8.15;4.80;;;;;;;;;;5104375;27;20461;-78
2023/04/27 13:14:22;;;;;;;7.60;4.70;;;;;;;;;;5108500;27;20498;-78
2023/04/27 13:16:48;;;;;;;7.97;5.00;;;;;;;;;;5110508;27;20406;-77
2023/04/27 13:19:14;;;;;;;8.07;5.05;;;;;;;;;;5106539;27;20410;-76
2023/04/27 13:21:41;;;;;;;9.82;5.15;;;;;;;;;;5114652;27;20731;-76
2023/04/27 13:24:07;;;;;;;9.48;5.10;;;;;;;;;;5088486;27;20465;-76
2023/04/27 13:26:33;;;;;;;9.52;5.65;;;;;;;;;;5114158;27;20937;-76
2023/04/27 13:29:03;;;;;;;10.95;5.70;;;;;;;;;;5092067;27;20419;-76
2023/04/27 13:31:30;;;;;;;10.13;5.60;;;;;;;;;;5092805;27;20457;-75
2023/04/27 13:33:57;;;;;;;9.20;5.70;;;;;;;;;;5096891;27;20445;-77
2023/04/27 13:36:23;;;;;;;10.27;5.30;;;;;;;;;;5090187;27;20422;-77
2023/04/27 13:38:49;;;;;;;9.77;5.38;;;;;;;;;;5109392;27;20423;-77
2023/04/27 13:41:16;;;;;;;8.80;5.38;;;;;;;;;;5098443;27;20551;-75
2023/04/27 13:43:42;;;;;;;8.60;5.05;;;;;;;;;;5115196;27;20407;-76
2023/04/27 13:46:08;;;;;;;7.60;5.35;;;;;;;;;;5097982;27;20398;-76
2023/04/27 13:48:34;;;;;;;9.23;5.18;;;;;;;;;;5111988;27;20410;-76
2023/04/27 13:51:00;;;;;;;10.18;5.75;;;;;;;;;;5090400;28;20453;-77
2023/04/27 13:53:26;;;;;;;9.32;5.43;;;;;;;;;;5089910;27;20715;-76
2023/04/27 13:55:56;;;;;;;9.85;5.30;;;;;;;;;;5096679;27;20414;-76
2023/04/27 13:58:22;;;;;;;8.30;4.93;;;;;;;;;;5090843;28;20907;-76
2023/04/27 14:00:50;;;;;;;7.97;5.05;;;;;;;;;;5091289;27;20467;-77
2023/04/27 14:03:16;;;;;;;9.60;5.53;;;;;;;;;;5095795;28;20910;-77
2023/04/27 14:05:43;;;;;;;9.55;5.43;;;;;;;;;;5113217;27;20505;-76
2023/04/27 14:08:09;;;;;;;8.52;5.03;;;;;;;;;;5085730;28;20461;-77
2023/04/27 14:10:36;;;;;;;8.23;5.32;;;14.70;99.90;;;;;;5096054;27;20515;-77
2023/04/27 14:13:02;;;;;;;8.52;5.65;;;;;;;;;;5105740;28;20422;-77
2023/04/27 14:15:29;;;;;;;8.88;5.15;;;;;;;;;;5100340;28;20493;-77
2023/04/27 14:17:55;;;;;;;10.18;5.28;;;;;;;;;;5105304;28;20411;-76
2023/04/27 14:20:21;;;;;;;8.98;5.40;;;;;;;;;;5093652;28;20412;-77
2023/04/27 14:22:47;;;;;;;9.38;5.38;;;;;;;;;;5094870;28;20406;-77
2023/04/27 14:25:13;;;;;;;13.63;6.03;;;;;;;;;;5109318;28;20423;-76
2023/04/27 14:27:40;;;;;;;9.27;5.70;;;;;;;;;;5105667;28;20411;-76
2023/04/27 14:30:06;;;;;;;11.43;6.10;;;;;;;;;;5107084;28;20944;-76
2023/04/27 14:32:32;;;;;;;9.10;6.10;;;;;;;;;;5111470;28;20413;-76
2023/04/27 14:34:58;;;;;;;9.95;6.05;;;;;;;;;;5109226;27;20839;-78
2023/04/27 14:37:24;;;;;;;9.60;5.68;;;;;;;;;;5096198;27;20778;-76
2023/04/27 14:39:50;;;;;;;9.80;5.38;;;;;;;;;;5093973;27;20423;-76
2023/04/27 14:42:17;;;;;;;8.05;5.10;;;;;;;;;;5095898;27;20415;-76
2023/04/27 14:44:43;;;;;;;10.18;5.20;;;;;;;;;;5112796;27;20441;-77
2023/04/27 14:47:09;;;;;;;7.50;5.35;;;;;;;;;;5081094;27;20906;-77
2023/04/27 14:49:35;;;;;;;8.52;5.40;;;;;;;;;;5094969;27;20933;-77
2023/04/27 14:52:02;;;;;;;10.95;5.20;;;;;;;;;;5093926;27;20424;-77
2023/04/27 14:54:29;;;;;;;8.23;5.43;;;;;;;;;;5100172;27;20522;-76
2023/04/27 14:56:55;;;;;;;9.68;5.35;;;;;;;;;;5114842;27;20493;-76
2023/04/27 14:59:21;;;;;;;11.00;5.90;;;;;;;;;;5096285;27;20743;-76
2023/04/27 15:01:48;;;;;;;8.55;5.10;;;;;;;;;;5117286;27;20417;-77
2023/04/27 15:04:14;;;;;;;6.78;4.63;;;;;;;;;;5114023;27;20418;-76
2023/04/27 15:06:40;;;;;;;8.85;4.90;;;;;;;;;;5117643;27;20418;-76
2023/04/27 15:09:06;;;;;;;8.43;5.35;;;;;;;;;;5097442;27;20820;-76
2023/04/27 15:11:32;;;;;;;8.02;5.07;;;;;;;;;;5105375;27;20406;-77
2023/04/27 15:13:58;;;;;;;8.80;5.43;;;;;;;;;;5114124;27;20470;-77
2023/04/27 15:16:24;;;;;;;10.15;5.25;;;;;;;;;;5100447;27;20499;-77
2023/04/27 15:18:51;;;;;;;7.65;5.15;;;;;;;;;;5106277;28;20468;-77
2023/04/27 15:21:17;;;;;;;9.93;5.47;;;;;;;;;;5104547;28;20412;-77
2023/04/27 15:23:43;;;;;;;7.68;5.35;;;;;;;;;;5104580;27;20919;-76
2023/04/27 15:26:09;;;;;;;8.63;5.78;;;;;;;;;;5092463;27;20425;-76
2023/04/27 15:28:36;;;;;;;8.82;5.38;;;;;;;;;;5094367;27;20422;-76
2023/04/27 15:31:02;;;;;;;8.48;5.00;;;;;;;;;;5115151;27;20415;-76
2023/04/27 15:33:28;;;;;;;8.48;5.68;;;;;;;;;;5114702;27;20831;-76
2023/04/27 15:35:54;;;;;;;10.18;5.60;;;;;;;;;;5080315;27;20412;-76
2023/04/27 15:38:20;;;;;;;10.13;5.65;;;;;;;;;;5116488;27;20463;-77
2023/04/27 15:40:46;;;;;;;9.40;5.72;;;;;;;;;;5114250;27;20434;-77
2023/04/27 15:43:13;;;;;;;9.63;5.30;;;;;;;;;;5106721;27;20453;-77
2023/04/27 15:45:40;;;;;;;8.68;5.30;;;;;;;;;;5105881;27;20483;-76
2023/04/27 15:48:06;;;;;;;8.88;5.30;;;;;;;;;;5113885;27;20426;-76
2023/04/27 15:50:32;;;;;;;9.35;5.63;;;;;;;;;;5110772;27;20529;-77
2023/04/27 15:52:58;;;;;;;8.48;5.03;;;;;;;;;;5109192;27;20416;-77
2023/04/27 15:55:25;;;;;;;7.60;5.00;;;;;;;;;;5116739;27;20422;-76
2023/04/27 15:57:51;;;;;;;7.60;4.85;;;;;;;;;;5117456;27;20410;-76
2023/04/27 16:00:20;;;;;;;7.32;5.20;;;13.50;99.90;;;;;;5113756;27;20466;-76
2023/04/27 16:02:46;;;;;;;8.35;5.20;;;;;;;;;;5109645;27;20452;-75
2023/04/27 16:05:13;;;;;;;9.05;5.28;;;;;;;;;;5092422;28;20464;-77
2023/04/27 16:07:41;;;;;;;6.65;4.80;;;13.60;99.90;;;;;;5093531;27;20894;-77
2023/04/27 16:10:07;;;;;;;9.15;5.45;;;;;;;;;;5099771;27;20575;-77
2023/04/27 16:12:34;;;;;;;8.67;4.93;;;;;;;;;;5112708;27;20414;-77
2023/04/27 16:15:00;;;;;;;7.25;5.22;;;;;;;;;;5112069;27;20421;-77
2023/04/27 16:17:27;;;;;;;8.80;5.03;;;13.00;99.90;;;;;;5117903;27;20414;-78
2023/04/27 16:19:54;;;;;;;7.30;5.07;;;;;;;;;;5117996;27;20419;-77
2023/04/27 16:22:21;;;;;;;8.95;5.03;;;;;;;;;;5097826;27;20406;-77
2023/04/27 16:24:47;;;;;;;9.38;4.75;;;;;;;;;;5107224;28;20416;-76
2023/04/27 16:27:13;;;;;;;7.80;4.90;;;;;;;;;;5116158;27;20414;-77
2023/04/27 16:29:39;;;;;;;7.53;5.05;;;;;;;;;;5098934;27;20501;-77
2023/04/27 16:32:09;;;;;;;8.25;5.10;;;;;;;;;;5093229;27;20415;-77
2023/04/27 16:34:36;;;;;;;9.25;5.00;;;;;;;;;;5116404;27;20425;-77
2023/04/27 16:37:02;;;;;;;9.35;5.47;;;;;;;;;;5091217;27;20419;-77
2023/04/27 16:39:28;;;;;;;10.10;5.40;;;;;;;;;;5079146;27;20410;-78
2023/04/27 16:41:54;;;;;;;11.10;5.75;;;;;;;;;;5114284;27;20403;-79
2023/04/27 16:44:21;;;;;;;8.88;5.10;;;;;;;;;;5096247;27;20415;-78
2023/04/27 16:46:49;;;;;;;8.93;5.07;;;;;;;;;;5077726;28;20926;-78
2023/04/27 16:49:15;;;;;;;7.32;4.90;;;;;;;;;;5095281;27;20474;-79
2023/04/27 16:51:41;;;;;;;7.73;5.00;;;;;;;;;;5094574;27;20479;-78
2023/04/27 16:54:08;;;;;;;7.95;5.10;;;;;;;;;;5106663;27;20514;-78
2023/04/27 16:56:35;;;;;;;9.27;4.87;;;;;;;;;;5089364;27;20416;-78
2023/04/27 16:59:01;;;;;;;9.35;4.90;;;;;;;;;;5082302;27;20545;-78
2023/04/27 17:01:28;;;;;;;8.52;5.60;;;;;;;;;;5110769;27;20825;-78
2023/04/27 17:03:59;;;;;;;8.70;5.97;;;12.80;99.90;;;;;;5112468;27;20411;-78
2023/04/27 17:06:26;;;;;;;10.60;5.03;;;;;;;;;;5090821;27;20452;-78
2023/04/27 17:08:53;;;;;;;9.38;5.63;;;;;;;;;;5110413;27;20438;-78
2023/04/27 17:11:19;;;;;;;8.03;5.00;;;;;;;;;;5112446;27;20512;-78
2023/04/27 17:13:48;;;;;;;8.32;5.32;;;;;;;;;;5105443;27;20996;-80
2023/04/27 17:16:15;;;;;;;9.73;5.60;;;;;;;;;;5107752;27;20426;-77
2023/04/27 17:18:42;;;;;;;7.68;5.18;;;;;;;;;;5109330;27;20891;-78
2023/04/27 17:21:08;;;;;;;8.52;5.53;;;;;;;;;;5092103;27;20971;-78
2023/04/27 17:23:35;;;;;;;8.10;5.03;;;;;;;;;;5105437;27;20425;-78
2023/04/27 17:26:01;;;;;;;8.40;5.57;;;;;;;;;;5083691;27;20437;-78
2023/04/27 17:28:28;;;;;;;9.43;5.75;;;;;;;;;;5110510;27;20411;-78
2023/04/27 17:30:55;;;;;;;9.47;6.03;;;;;;;;;;5110905;27;20418;-78
2023/04/27 17:33:21;;;;;;;16.02;9.63;;;;;;;;;;5089375;27;20887;-78
2023/04/27 17:35:47;;;;;;;8.80;6.10;;;;;;;;;;5087816;27;20524;-77
2023/04/27 17:38:13;;;;;;;10.05;5.68;;;;;;;;;;5110802;27;20983;-80
2023/04/27 17:40:39;;;;;;;13.90;9.18;;;;;;;;;;5072754;27;20919;-78
2023/04/27 17:43:06;;;;;;;10.25;6.35;;;;;;;;;;5115537;27;20422;-77
2023/04/27 17:45:32;;;;;;;9.93;6.45;;;;;;;;;;5087808;27;20944;-78
2023/04/27 17:47:58;;;;;;;12.32;8.68;;;;;;;;;;5094335;27;20450;-78
2023/04/27 17:50:24;;;;;;;8.82;6.57;;;;;;;;;;5114752;27;20934;-79
2023/04/27 17:52:52;;;;;;;11.82;6.80;;;;;;;;;;5104029;28;20479;-78
2023/04/27 17:55:18;;;;;;;11.35;6.80;;;;;;;;;;5106583;27;20419;-78
2023/04/27 17:57:44;;;;;;;11.25;7.18;;;;;;;;;;5110315;28;20444;-78
2023/04/27 18:00:11;;;;;;;11.18;7.20;;;;;;;;;;5113275;27;20527;-77
2023/04/27 18:02:37;;;;;;;12.30;7.00;;;;;;;;;;5097404;27;20429;-78
2023/04/27 18:05:03;;;;;;;11.63;6.63;;;;;;;;;;5096067;27;20414;-79
2023/04/27 18:07:29;;;;;;;11.20;6.43;;;;;;;;;;5093892;27;20450;-79
2023/04/27 18:09:56;;;;;;;10.55;7.07;;;;;;;;;;5080090;27;20433;-78
2023/04/27 18:12:22;;;;;;;9.18;6.40;;;;;;;;;;5095272;28;20894;-78
2023/04/27 18:14:51;;;;;;;10.55;6.80;;;;;;;;;;5110420;28;20469;-78
2023/04/27 18:17:17;;;;;;;11.90;6.80;;;;;;;;;;5111246;28;20547;-79
2023/04/27 18:19:43;;;;;;;10.70;7.10;;;;;;;;;;5093163;28;20440;-79
2023/04/27 18:22:09;;;;;;;11.60;7.15;;;;;;;;;;5105165;28;20441;-78
2023/04/27 18:24:35;;;;;;;9.98;7.00;;;;;;;;;;5077050;28;20510;-78
2023/04/27 18:27:02;;;;;;;13.13;7.22;;;;;;;;;;5092355;28;20421;-78
2023/04/27 18:29:29;;;;;;;8.85;7.00;;;;;;;;;;5089586;28;20456;-78
2023/04/27 18:31:57;;;;;;;11.63;7.15;;;;;;;;;;5092878;28;20939;-79
2023/04/27 18:34:23;;;;;;;11.40;8.33;;;;;;;;;;5107860;28;20415;-78
2023/04/27 18:36:49;;;;;;;11.63;7.65;;;;;;;;;;5111049;28;20419;-78
2023/04/27 18:39:16;;;;;;;14.10;7.53;;;;;;;;;;5110828;28;20457;-79
2023/04/27 18:41:42;;;;;;;10.80;7.78;;;10.30;99.90;;;;;;5090195;28;20551;-78
2023/04/27 18:44:08;;;;;;;15.98;9.02;;;;;;;;;;5106314;28;20414;-78
2023/04/27 18:46:34;;;;;;;10.93;7.85;;;;;;;;;;5093521;28;20429;-79
2023/04/27 18:49:01;;;;;;;11.57;8.20;;;;;;;;;;5088379;28;20499;-78
2023/04/27 18:51:27;;;;;;;12.18;8.02;;;;;;;;;;5105771;28;20418;-79
2023/04/27 18:53:53;;;;;;;13.18;8.50;;;;;;;;;;5089674;28;20424;-79
2023/04/27 18:56:20;;;;;;;13.90;8.57;;;;;;;;;;5120742;28;20457;-79
2023/04/27 18:58:47;;;;;;;14.43;8.67;;;;;;;;;;5083065;28;20410;-79
2023/04/27 19:01:23;;;;;;;14.77;9.68;;;;;;;;;;5095905;28;20410;-78
2023/04/27 19:03:50;;;;;;;15.43;9.70;;;;;;;;;;5107931;28;20482;-78
2023/04/27 19:06:16;;;;;;;15.37;8.90;;;;;;;;;;5096052;28;20770;-79
2023/04/27 19:08:45;;;;;;;14.88;10.38;;;;;;;;;;5111177;28;20536;-80
2023/04/27 19:11:15;;;;;;;13.57;9.15;;;;;;;;;;5085828;28;20412;-82
2023/04/27 19:13:43;;;;;;;17.63;14.65;;;;;;;;;;5111176;28;20412;-80
2023/04/27 19:16:10;;;;;;;13.90;11.23;;;9.10;99.90;;;;;;5106536;28;20426;-80
2023/04/27 19:18:36;;;;;;;13.38;10.32;;;;;;;;;;5102761;27;20428;-80
2023/04/27 19:21:03;;;;;;;13.50;9.05;;;;;;;;;;5085311;28;20412;-79
2023/04/27 19:23:29;;;;;;;13.23;9.43;;;;;;;;;;5095516;27;20453;-80
2023/04/27 19:25:55;;;;;;;18.77;13.40;;;;;;;;;;5101657;27;20494;-79
2023/04/27 19:28:22;;;;;;;17.13;12.48;;;;;;;;;;5098627;28;20520;-79
2023/04/27 19:30:48;;;;;;;13.30;9.68;;;;;;;;;;5112200;27;20902;-80
2023/04/27 19:33:15;;;;;;;14.25;9.52;;;;;;;;;;5117571;27;20987;-80
2023/04/27 19:35:41;;;;;;;15.18;9.90;;;;;;;;;;5115007;27;20762;-79
2023/04/27 19:38:07;;;;;;;12.77;8.37;;;;;;;;;;5099337;27;20851;-78
2023/04/27 19:40:33;;;;;;;17.15;12.38;;;;;;;;;;5098072;27;20501;-79
2023/04/27 19:42:59;;;;;;;13.43;9.27;;;;;;;;;;5098619;27;20422;-79
2023/04/27 19:45:25;;;;;;;13.52;9.45;;;;;;;;;;5115914;27;20776;-79
2023/04/27 19:47:52;;;;;;;14.05;9.15;;;;;;;;;;5115894;27;20482;-78
2023/04/27 19:50:19;;;;;;;13.80;9.23;;;;;;;;;;5099516;27;20402;-79
2023/04/27 19:52:45;;;;;;;14.52;9.38;;;;;;;;;;5100130;27;20485;-79
2023/04/27 19:55:11;;;;;;;11.45;8.45;;;;;;;;;;5115672;27;20419;-79
2023/04/27 19:57:38;;;;;;;13.13;8.77;;;;;;;;;;5114532;27;20509;-79
2023/04/27 20:00:05;;;;;;;12.52;8.70;;;;;;;;;;5114752;27;20414;-79
2023/04/27 20:02:31;;;;;;;14.60;9.20;;;;;;;;;;5096312;27;20809;-79
2023/04/27 20:04:58;;;;;;;14.30;8.88;;;;;;;;;;5095841;27;20425;-79
2023/04/27 20:07:24;;;;;;;13.50;9.35;;;;;;;;;;5107528;27;20846;-79
2023/04/27 20:09:50;;;;;;;14.60;9.43;;;;;;;;;;5114509;27;20422;-79
2023/04/27 20:12:16;;;;;;;18.40;15.10;;;;;;;;;;5097275;27;20418;-80
2023/04/27 20:14:43;;;;;;;13.00;8.80;;;;;;;;;;5091271;27;20426;-81
2023/04/27 20:17:09;;;;;;;12.65;9.38;;;;;;;;;;5116868;27;20769;-82
2023/04/27 20:19:35;;;;;;;28.10;16.90;;;;;;;;;;5110982;27;20411;-80
2023/04/27 20:22:01;;;;;;;14.27;10.07;;;;;;;;;;5109337;27;20407;-81
2023/04/27 20:24:27;;;;;;;16.17;10.40;;;;;;;;;;5097369;27;20406;-81
2023/04/27 20:26:54;;;;;;;15.90;11.02;;;;;;;;;;5094451;27;20549;-80